sensor_id;sensor_type;location;lat;lon;timestamp;P1;durP1;ratioP1;P2;durP2;ratioP2
56299;SDS011;42209;6.376;-10.782;2022-12-07T00:00:13;8.15;;;7.35;;
56299;SDS011;42209;6.376;-10.782;2022-12-07T00:05:14;9.10;;;7.57;;
56299;SDS011;42209;6.376;-10.782;2022-12-07T00:07:43;7.97;;;6.82;;
56299;SDS011;42209;6.376;-10.782;2022-12-07T00:10:12;9.25;;;7.60;;
56299;SDS011;42209;6.376;-10.782;2022-12-07T00:12:40;8.93;;;7.45;;
56299;SDS011;42209;6.376;-10.782;2022-12-07T00:15:09;8.57;;;7.55;;
56299;SDS011;42209;6.376;-10.782;2022-12-07T00:17:38;8.90;;;8.00;;
56299;SDS011;42209;6.376;-10.782;2022-12-07T00:20:06;9.57;;;7.68;;
56299;SDS011;42209;6.376;-10.782;2022-12-07T00:22:35;10.95;;;7.45;;
56299;SDS011;42209;6.376;-10.782;2022-12-07T00:25:03;9.63;;;6.97;;
56299;SDS011;42209;6.376;-10.782;2022-12-07T00:27:32;10.90;;;8.18;;
56299;SDS011;42209;6.376;-10.782;2022-12-07T00:30:03;10.68;;;8.05;;
56299;SDS011;42209;6.376;-10.782;2022-12-07T00:32:32;11.43;;;8.35;;
56299;SDS011;42209;6.376;-10.782;2022-12-07T00:35:01;8.82;;;7.50;;
56299;SDS011;42209;6.376;-10.782;2022-12-07T00:37:30;8.80;;;7.22;;
56299;SDS011;42209;6.376;-10.782;2022-12-07T00:39:58;9.25;;;8.02;;
56299;SDS011;42209;6.376;-10.782;2022-12-07T00:42:27;9.95;;;7.60;;
56299;SDS011;42209;6.376;-10.782;2022-12-07T00:44:55;10.57;;;7.50;;
56299;SDS011;42209;6.376;-10.782;2022-12-07T00:47:24;11.48;;;7.88;;
56299;SDS011;42209;6.376;-10.782;2022-12-07T00:49:52;9.60;;;8.05;;
56299;SDS011;42209;6.376;-10.782;2022-12-07T00:52:20;9.82;;;7.68;;
56299;SDS011;42209;6.376;-10.782;2022-12-07T00:54:49;9.75;;;7.78;;
56299;SDS011;42209;6.376;-10.782;2022-12-07T00:57:17;9.52;;;7.05;;
56299;SDS011;42209;6.376;-10.782;2022-12-07T00:59:46;9.18;;;7.25;;
56299;SDS011;42209;6.376;-10.782;2022-12-07T01:02:15;10.00;;;7.13;;
56299;SDS011;42209;6.376;-10.782;2022-12-07T01:04:43;8.80;;;7.35;;
56299;SDS011;42209;6.376;-10.782;2022-12-07T01:07:12;8.68;;;7.10;;
56299;SDS011;42209;6.376;-10.782;2022-12-07T01:09:43;8.82;;;7.07;;
56299;SDS011;42209;6.376;-10.782;2022-12-07T01:12:12;8.77;;;7.35;;
56299;SDS011;42209;6.376;-10.782;2022-12-07T01:14:41;9.40;;;6.65;;
56299;SDS011;42209;6.376;-10.782;2022-12-07T01:17:09;9.63;;;7.95;;
56299;SDS011;42209;6.376;-10.782;2022-12-07T01:19:38;11.13;;;7.53;;
56299;SDS011;42209;6.376;-10.782;2022-12-07T01:22:06;8.48;;;7.43;;
56299;SDS011;42209;6.376;-10.782;2022-12-07T01:24:35;9.80;;;7.63;;
56299;SDS011;42209;6.376;-10.782;2022-12-07T01:27:03;8.35;;;7.10;;
56299;SDS011;42209;6.376;-10.782;2022-12-07T01:29:32;8.90;;;7.40;;
56299;SDS011;42209;6.376;-10.782;2022-12-07T01:32:00;10.23;;;6.82;;
56299;SDS011;42209;6.376;-10.782;2022-12-07T01:34:28;8.52;;;7.35;;
56299;SDS011;42209;6.376;-10.782;2022-12-07T01:36:57;9.07;;;7.20;;
56299;SDS011;42209;6.376;-10.782;2022-12-07T01:39:25;10.00;;;7.97;;
56299;SDS011;42209;6.376;-10.782;2022-12-07T01:41:54;8.55;;;7.10;;
56299;SDS011;42209;6.376;-10.782;2022-12-07T01:44:26;8.07;;;7.28;;
56299;SDS011;42209;6.376;-10.782;2022-12-07T01:46:57;7.68;;;6.43;;
56299;SDS011;42209;6.376;-10.782;2022-12-07T01:54:44;8.73;;;7.15;;
56299;SDS011;42209;6.376;-10.782;2022-12-07T01:57:15;8.63;;;7.10;;
56299;SDS011;42209;6.376;-10.782;2022-12-07T01:59:45;8.32;;;6.78;;
56299;SDS011;42209;6.376;-10.782;2022-12-07T02:02:19;8.07;;;6.43;;
56299;SDS011;42209;6.376;-10.782;2022-12-07T02:04:52;8.35;;;6.03;;
56299;SDS011;42209;6.376;-10.782;2022-12-07T02:07:23;6.80;;;6.13;;
56299;SDS011;42209;6.376;-10.782;2022-12-07T02:09:52;8.35;;;7.35;;
56299;SDS011;42209;6.376;-10.782;2022-12-07T02:12:20;9.75;;;7.10;;
56299;SDS011;42209;6.376;-10.782;2022-12-07T02:14:51;8.45;;;7.05;;
56299;SDS011;42209;6.376;-10.782;2022-12-07T02:17:32;8.73;;;6.97;;
56299;SDS011;42209;6.376;-10.782;2022-12-07T02:20:16;8.75;;;6.60;;
56299;SDS011;42209;6.376;-10.782;2022-12-07T02:28:35;9.05;;;7.25;;
56299;SDS011;42209;6.376;-10.782;2022-12-07T02:31:22;9.07;;;6.97;;
56299;SDS011;42209;6.376;-10.782;2022-12-07T02:36:50;7.75;;;6.93;;
56299;SDS011;42209;6.376;-10.782;2022-12-07T02:42:38;8.77;;;7.72;;
56299;SDS011;42209;6.376;-10.782;2022-12-07T02:45:13;9.02;;;7.45;;
56299;SDS011;42209;6.376;-10.782;2022-12-07T02:47:45;8.63;;;7.00;;
56299;SDS011;42209;6.376;-10.782;2022-12-07T02:50:30;8.63;;;6.45;;
56299;SDS011;42209;6.376;-10.782;2022-12-07T02:52:59;8.90;;;6.20;;
56299;SDS011;42209;6.376;-10.782;2022-12-07T02:58:27;9.55;;;7.53;;
56299;SDS011;42209;6.376;-10.782;2022-12-07T03:01:45;8.43;;;6.65;;
56299;SDS011;42209;6.376;-10.782;2022-12-07T03:04:27;8.20;;;6.78;;
56299;SDS011;42209;6.376;-10.782;2022-12-07T03:10:22;8.57;;;6.93;;
56299;SDS011;42209;6.376;-10.782;2022-12-07T03:18:55;8.05;;;7.25;;
56299;SDS011;42209;6.376;-10.782;2022-12-07T03:21:27;7.80;;;7.05;;
56299;SDS011;42209;6.376;-10.782;2022-12-07T03:24:04;8.20;;;6.80;;
56299;SDS011;42209;6.376;-10.782;2022-12-07T03:26:44;8.57;;;6.18;;
56299;SDS011;42209;6.376;-10.782;2022-12-07T03:29:21;7.88;;;6.88;;
56299;SDS011;42209;6.376;-10.782;2022-12-07T03:32:00;7.07;;;5.63;;
56299;SDS011;42209;6.376;-10.782;2022-12-07T03:34:38;8.52;;;6.78;;
56299;SDS011;42209;6.376;-10.782;2022-12-07T03:37:23;8.02;;;6.70;;
56299;SDS011;42209;6.376;-10.782;2022-12-07T03:40:12;8.85;;;7.15;;
56299;SDS011;42209;6.376;-10.782;2022-12-07T03:42:50;8.18;;;7.28;;
56299;SDS011;42209;6.376;-10.782;2022-12-07T03:45:21;7.40;;;6.20;;
56299;SDS011;42209;6.376;-10.782;2022-12-07T03:51:04;7.97;;;6.78;;
56299;SDS011;42209;6.376;-10.782;2022-12-07T03:53:54;7.25;;;6.50;;
56299;SDS011;42209;6.376;-10.782;2022-12-07T03:56:33;8.05;;;7.22;;
56299;SDS011;42209;6.376;-10.782;2022-12-07T03:59:02;6.93;;;6.25;;
56299;SDS011;42209;6.376;-10.782;2022-12-07T04:01:31;6.43;;;5.68;;
56299;SDS011;42209;6.376;-10.782;2022-12-07T04:04:00;9.10;;;6.88;;
56299;SDS011;42209;6.376;-10.782;2022-12-07T04:06:28;7.25;;;6.55;;
56299;SDS011;42209;6.376;-10.782;2022-12-07T04:08:56;7.60;;;6.90;;
56299;SDS011;42209;6.376;-10.782;2022-12-07T04:11:24;7.50;;;6.70;;
56299;SDS011;42209;6.376;-10.782;2022-12-07T04:13:53;7.68;;;6.95;;
56299;SDS011;42209;6.376;-10.782;2022-12-07T04:16:21;7.45;;;6.50;;
56299;SDS011;42209;6.376;-10.782;2022-12-07T04:18:50;9.23;;;7.25;;
56299;SDS011;42209;6.376;-10.782;2022-12-07T04:21:18;7.88;;;6.85;;
56299;SDS011;42209;6.376;-10.782;2022-12-07T04:23:46;8.38;;;7.55;;
56299;SDS011;42209;6.376;-10.782;2022-12-07T04:26:15;8.13;;;7.13;;
56299;SDS011;42209;6.376;-10.782;2022-12-07T04:28:43;8.43;;;7.53;;
56299;SDS011;42209;6.376;-10.782;2022-12-07T04:31:11;8.50;;;7.30;;
56299;SDS011;42209;6.376;-10.782;2022-12-07T04:33:39;7.63;;;6.60;;
56299;SDS011;42209;6.376;-10.782;2022-12-07T04:36:08;7.82;;;6.28;;
56299;SDS011;42209;6.376;-10.782;2022-12-07T04:38:36;8.60;;;6.88;;
56299;SDS011;42209;6.376;-10.782;2022-12-07T04:41:27;7.88;;;6.85;;
56299;SDS011;42209;6.376;-10.782;2022-12-07T04:43:59;8.45;;;7.65;;
56299;SDS011;42209;6.376;-10.782;2022-12-07T04:46:29;6.32;;;5.50;;
56299;SDS011;42209;6.376;-10.782;2022-12-07T04:48:59;7.93;;;7.13;;
56299;SDS011;42209;6.376;-10.782;2022-12-07T04:51:28;7.97;;;7.05;;
56299;SDS011;42209;6.376;-10.782;2022-12-07T04:53:56;7.82;;;6.60;;
56299;SDS011;42209;6.376;-10.782;2022-12-07T04:56:25;7.68;;;6.60;;
56299;SDS011;42209;6.376;-10.782;2022-12-07T04:58:53;7.40;;;6.50;;
56299;SDS011;42209;6.376;-10.782;2022-12-07T05:01:22;7.53;;;6.35;;
56299;SDS011;42209;6.376;-10.782;2022-12-07T05:03:51;8.40;;;6.63;;
56299;SDS011;42209;6.376;-10.782;2022-12-07T05:06:19;7.53;;;6.82;;
56299;SDS011;42209;6.376;-10.782;2022-12-07T05:08:47;7.60;;;6.80;;
56299;SDS011;42209;6.376;-10.782;2022-12-07T05:11:16;7.72;;;6.90;;
56299;SDS011;42209;6.376;-10.782;2022-12-07T05:13:44;9.65;;;7.88;;
56299;SDS011;42209;6.376;-10.782;2022-12-07T05:16:12;8.68;;;6.82;;
56299;SDS011;42209;6.376;-10.782;2022-12-07T05:18:41;8.68;;;6.93;;
56299;SDS011;42209;6.376;-10.782;2022-12-07T05:21:09;8.50;;;6.82;;
56299;SDS011;42209;6.376;-10.782;2022-12-07T05:23:37;8.27;;;6.70;;
56299;SDS011;42209;6.376;-10.782;2022-12-07T05:26:06;7.30;;;6.45;;
56299;SDS011;42209;6.376;-10.782;2022-12-07T05:28:34;8.27;;;6.82;;
56299;SDS011;42209;6.376;-10.782;2022-12-07T05:31:03;7.97;;;7.15;;
56299;SDS011;42209;6.376;-10.782;2022-12-07T05:33:31;8.20;;;7.10;;
56299;SDS011;42209;6.376;-10.782;2022-12-07T05:35:59;7.85;;;7.10;;
56299;SDS011;42209;6.376;-10.782;2022-12-07T05:38:28;7.93;;;6.70;;
56299;SDS011;42209;6.376;-10.782;2022-12-07T05:40:59;7.90;;;6.97;;
56299;SDS011;42209;6.376;-10.782;2022-12-07T05:43:33;8.68;;;6.97;;
56299;SDS011;42209;6.376;-10.782;2022-12-07T05:46:01;7.97;;;6.85;;
56299;SDS011;42209;6.376;-10.782;2022-12-07T05:48:30;7.88;;;6.72;;
56299;SDS011;42209;6.376;-10.782;2022-12-07T05:50:58;6.95;;;6.13;;
56299;SDS011;42209;6.376;-10.782;2022-12-07T05:53:27;7.90;;;6.85;;
56299;SDS011;42209;6.376;-10.782;2022-12-07T05:55:58;8.10;;;7.30;;
56299;SDS011;42209;6.376;-10.782;2022-12-07T05:58:27;7.47;;;6.78;;
56299;SDS011;42209;6.376;-10.782;2022-12-07T06:00:55;7.95;;;7.10;;
56299;SDS011;42209;6.376;-10.782;2022-12-07T06:03:24;8.70;;;7.57;;
56299;SDS011;42209;6.376;-10.782;2022-12-07T06:05:52;7.20;;;6.03;;
56299;SDS011;42209;6.376;-10.782;2022-12-07T06:08:20;7.47;;;6.60;;
56299;SDS011;42209;6.376;-10.782;2022-12-07T06:10:49;7.90;;;6.60;;
56299;SDS011;42209;6.376;-10.782;2022-12-07T06:13:17;7.72;;;6.65;;
56299;SDS011;42209;6.376;-10.782;2022-12-07T06:15:47;8.13;;;6.93;;
56299;SDS011;42209;6.376;-10.782;2022-12-07T06:18:15;8.25;;;7.43;;
56299;SDS011;42209;6.376;-10.782;2022-12-07T06:20:44;6.85;;;6.15;;
56299;SDS011;42209;6.376;-10.782;2022-12-07T06:23:12;8.13;;;7.32;;
56299;SDS011;42209;6.376;-10.782;2022-12-07T06:25:44;7.03;;;6.32;;
56299;SDS011;42209;6.376;-10.782;2022-12-07T06:28:13;8.20;;;6.55;;
56299;SDS011;42209;6.376;-10.782;2022-12-07T06:30:42;8.25;;;6.75;;
56299;SDS011;42209;6.376;-10.782;2022-12-07T06:33:10;8.90;;;7.55;;
56299;SDS011;42209;6.376;-10.782;2022-12-07T06:35:38;7.97;;;6.88;;
56299;SDS011;42209;6.376;-10.782;2022-12-07T06:38:07;7.35;;;6.65;;
56299;SDS011;42209;6.376;-10.782;2022-12-07T06:40:35;7.15;;;6.45;;
56299;SDS011;42209;6.376;-10.782;2022-12-07T06:43:03;7.82;;;6.80;;
56299;SDS011;42209;6.376;-10.782;2022-12-07T06:45:32;7.40;;;6.70;;
56299;SDS011;42209;6.376;-10.782;2022-12-07T06:50:29;6.85;;;5.50;;
56299;SDS011;42209;6.376;-10.782;2022-12-07T06:52:57;7.00;;;6.30;;
56299;SDS011;42209;6.376;-10.782;2022-12-07T06:55:25;6.95;;;5.88;;
56299;SDS011;42209;6.376;-10.782;2022-12-07T06:57:54;7.43;;;6.10;;
56299;SDS011;42209;6.376;-10.782;2022-12-07T07:00:22;7.72;;;6.35;;
56299;SDS011;42209;6.376;-10.782;2022-12-07T07:02:51;8.85;;;7.00;;
56299;SDS011;42209;6.376;-10.782;2022-12-07T07:05:19;9.90;;;7.57;;
56299;SDS011;42209;6.376;-10.782;2022-12-07T07:10:37;8.15;;;6.57;;
56299;SDS011;42209;6.376;-10.782;2022-12-07T07:13:05;9.23;;;6.80;;
56299;SDS011;42209;6.376;-10.782;2022-12-07T07:15:34;8.05;;;6.40;;
56299;SDS011;42209;6.376;-10.782;2022-12-07T07:18:05;8.18;;;7.15;;
56299;SDS011;42209;6.376;-10.782;2022-12-07T07:20:34;6.95;;;6.22;;
56299;SDS011;42209;6.376;-10.782;2022-12-07T07:23:02;6.95;;;6.18;;
56299;SDS011;42209;6.376;-10.782;2022-12-07T07:25:31;8.13;;;6.88;;
56299;SDS011;42209;6.376;-10.782;2022-12-07T07:28:00;7.60;;;6.63;;
56299;SDS011;42209;6.376;-10.782;2022-12-07T07:30:29;7.03;;;6.13;;
56299;SDS011;42209;6.376;-10.782;2022-12-07T07:35:28;7.25;;;6.43;;
56299;SDS011;42209;6.376;-10.782;2022-12-07T07:37:58;7.35;;;6.28;;
56299;SDS011;42209;6.376;-10.782;2022-12-07T07:40:28;8.07;;;6.68;;
56299;SDS011;42209;6.376;-10.782;2022-12-07T07:42:58;8.18;;;6.78;;
56299;SDS011;42209;6.376;-10.782;2022-12-07T07:45:26;8.25;;;6.90;;
56299;SDS011;42209;6.376;-10.782;2022-12-07T07:47:55;7.70;;;6.80;;
56299;SDS011;42209;6.376;-10.782;2022-12-07T07:50:23;7.75;;;6.45;;
56299;SDS011;42209;6.376;-10.782;2022-12-07T07:52:52;6.95;;;5.82;;
56299;SDS011;42209;6.376;-10.782;2022-12-07T07:55:20;8.65;;;7.40;;
56299;SDS011;42209;6.376;-10.782;2022-12-07T07:57:49;7.75;;;7.00;;
56299;SDS011;42209;6.376;-10.782;2022-12-07T08:00:21;7.75;;;6.95;;
56299;SDS011;42209;6.376;-10.782;2022-12-07T08:02:50;6.90;;;6.05;;
56299;SDS011;42209;6.376;-10.782;2022-12-07T08:05:18;7.28;;;6.57;;
56299;SDS011;42209;6.376;-10.782;2022-12-07T08:07:46;7.55;;;6.78;;
56299;SDS011;42209;6.376;-10.782;2022-12-07T08:10:15;7.70;;;6.90;;
56299;SDS011;42209;6.376;-10.782;2022-12-07T08:12:43;7.13;;;6.53;;
56299;SDS011;42209;6.376;-10.782;2022-12-07T08:15:11;8.25;;;6.50;;
56299;SDS011;42209;6.376;-10.782;2022-12-07T08:22:26;7.85;;;7.05;;
56299;SDS011;42209;6.376;-10.782;2022-12-07T08:24:54;8.00;;;6.47;;
56299;SDS011;42209;6.376;-10.782;2022-12-07T08:27:23;7.10;;;6.05;;
56299;SDS011;42209;6.376;-10.782;2022-12-07T08:29:51;7.07;;;6.38;;
56299;SDS011;42209;6.376;-10.782;2022-12-07T08:32:19;6.43;;;5.82;;
56299;SDS011;42209;6.376;-10.782;2022-12-07T08:34:48;7.25;;;6.43;;
56299;SDS011;42209;6.376;-10.782;2022-12-07T08:37:19;7.20;;;6.38;;
56299;SDS011;42209;6.376;-10.782;2022-12-07T08:39:48;7.38;;;6.35;;
56299;SDS011;42209;6.376;-10.782;2022-12-07T08:42:17;7.35;;;6.65;;
56299;SDS011;42209;6.376;-10.782;2022-12-07T08:44:45;7.72;;;6.80;;
56299;SDS011;42209;6.376;-10.782;2022-12-07T08:47:14;8.45;;;6.47;;
56299;SDS011;42209;6.376;-10.782;2022-12-07T08:49:44;7.20;;;6.50;;
56299;SDS011;42209;6.376;-10.782;2022-12-07T08:52:16;7.05;;;6.35;;
56299;SDS011;42209;6.376;-10.782;2022-12-07T08:54:45;6.70;;;6.07;;
56299;SDS011;42209;6.376;-10.782;2022-12-07T08:57:13;6.63;;;5.97;;
56299;SDS011;42209;6.376;-10.782;2022-12-07T08:59:42;6.68;;;5.97;;
56299;SDS011;42209;6.376;-10.782;2022-12-07T09:02:10;7.00;;;6.28;;
56299;SDS011;42209;6.376;-10.782;2022-12-07T09:04:39;7.70;;;6.43;;
56299;SDS011;42209;6.376;-10.782;2022-12-07T09:07:07;6.28;;;5.63;;
56299;SDS011;42209;6.376;-10.782;2022-12-07T09:09:37;7.60;;;6.30;;
56299;SDS011;42209;6.376;-10.782;2022-12-07T09:12:05;6.22;;;5.63;;
56299;SDS011;42209;6.376;-10.782;2022-12-07T09:14:34;7.72;;;6.43;;
56299;SDS011;42209;6.376;-10.782;2022-12-07T09:17:06;8.00;;;6.55;;
56299;SDS011;42209;6.376;-10.782;2022-12-07T09:19:39;6.32;;;5.57;;
56299;SDS011;42209;6.376;-10.782;2022-12-07T09:22:08;6.30;;;5.65;;
56299;SDS011;42209;6.376;-10.782;2022-12-07T09:24:37;8.80;;;5.90;;
56299;SDS011;42209;6.376;-10.782;2022-12-07T09:27:05;8.18;;;6.15;;
56299;SDS011;42209;6.376;-10.782;2022-12-07T09:29:33;6.25;;;5.47;;
56299;SDS011;42209;6.376;-10.782;2022-12-07T09:32:02;7.78;;;6.20;;
56299;SDS011;42209;6.376;-10.782;2022-12-07T09:34:37;7.40;;;6.68;;
56299;SDS011;42209;6.376;-10.782;2022-12-07T09:37:06;7.75;;;5.68;;
56299;SDS011;42209;6.376;-10.782;2022-12-07T09:39:37;6.60;;;5.80;;
56299;SDS011;42209;6.376;-10.782;2022-12-07T09:45:02;8.15;;;6.22;;
56299;SDS011;42209;6.376;-10.782;2022-12-07T09:47:34;7.15;;;6.13;;
56299;SDS011;42209;6.376;-10.782;2022-12-07T09:50:03;7.57;;;5.80;;
56299;SDS011;42209;6.376;-10.782;2022-12-07T09:52:39;7.38;;;6.13;;
56299;SDS011;42209;6.376;-10.782;2022-12-07T09:55:11;6.78;;;6.07;;
56299;SDS011;42209;6.376;-10.782;2022-12-07T09:57:41;7.40;;;5.55;;
56299;SDS011;42209;6.376;-10.782;2022-12-07T10:03:01;6.35;;;5.32;;
56299;SDS011;42209;6.376;-10.782;2022-12-07T10:05:30;8.57;;;6.93;;
56299;SDS011;42209;6.376;-10.782;2022-12-07T10:08:12;6.70;;;5.80;;
56299;SDS011;42209;6.376;-10.782;2022-12-07T10:10:42;5.88;;;5.30;;
56299;SDS011;42209;6.376;-10.782;2022-12-07T10:13:14;5.85;;;5.25;;
56299;SDS011;42209;6.376;-10.782;2022-12-07T10:15:54;6.88;;;5.13;;
56299;SDS011;42209;6.376;-10.782;2022-12-07T10:18:33;6.97;;;5.90;;
56299;SDS011;42209;6.376;-10.782;2022-12-07T10:21:13;8.05;;;6.15;;
56299;SDS011;42209;6.376;-10.782;2022-12-07T10:24:05;6.25;;;5.35;;
56299;SDS011;42209;6.376;-10.782;2022-12-07T10:26:41;5.72;;;5.18;;
56299;SDS011;42209;6.376;-10.782;2022-12-07T10:29:23;5.70;;;5.20;;
56299;SDS011;42209;6.376;-10.782;2022-12-07T10:32:21;7.72;;;5.22;;
56299;SDS011;42209;6.376;-10.782;2022-12-07T10:35:23;5.78;;;5.22;;
56299;SDS011;42209;6.376;-10.782;2022-12-07T10:37:57;6.38;;;5.57;;
56299;SDS011;42209;6.376;-10.782;2022-12-07T10:54:32;7.00;;;5.70;;
56299;SDS011;42209;6.376;-10.782;2022-12-07T10:57:32;6.05;;;5.45;;
56299;SDS011;42209;6.376;-10.782;2022-12-07T11:00:21;6.20;;;5.38;;
56299;SDS011;42209;6.376;-10.782;2022-12-07T11:14:18;5.90;;;5.25;;
56299;SDS011;42209;6.376;-10.782;2022-12-07T11:19:34;5.60;;;5.05;;
56299;SDS011;42209;6.376;-10.782;2022-12-07T11:39:03;5.80;;;4.88;;
56299;SDS011;42209;6.376;-10.782;2022-12-07T11:41:39;5.95;;;4.68;;
56299;SDS011;42209;6.376;-10.782;2022-12-07T11:49:40;5.93;;;4.72;;
56299;SDS011;42209;6.376;-10.782;2022-12-07T11:52:17;6.53;;;5.25;;
56299;SDS011;42209;6.376;-10.782;2022-12-07T11:54:53;6.28;;;5.60;;
56299;SDS011;42209;6.376;-10.782;2022-12-07T11:57:28;6.07;;;5.10;;
56299;SDS011;42209;6.376;-10.782;2022-12-07T12:00:14;7.20;;;4.22;;
56299;SDS011;42209;6.376;-10.782;2022-12-07T12:02:52;6.40;;;5.10;;
56299;SDS011;42209;6.376;-10.782;2022-12-07T12:05:26;6.15;;;5.30;;
56299;SDS011;42209;6.376;-10.782;2022-12-07T12:08:03;6.57;;;5.03;;
56299;SDS011;42209;6.376;-10.782;2022-12-07T12:17:28;4.88;;;4.38;;
56299;SDS011;42209;6.376;-10.782;2022-12-07T12:22:56;4.95;;;4.25;;
56299;SDS011;42209;6.376;-10.782;2022-12-07T12:34:10;6.13;;;4.85;;
56299;SDS011;42209;6.376;-10.782;2022-12-07T12:42:50;5.35;;;4.85;;
56299;SDS011;42209;6.376;-10.782;2022-12-07T12:45:25;6.85;;;4.50;;
56299;SDS011;42209;6.376;-10.782;2022-12-07T12:50:35;4.40;;;4.00;;
56299;SDS011;42209;6.376;-10.782;2022-12-07T12:56:26;4.75;;;4.28;;
56299;SDS011;42209;6.376;-10.782;2022-12-07T13:01:46;5.63;;;5.00;;
56299;SDS011;42209;6.376;-10.782;2022-12-07T13:04:22;5.88;;;4.45;;
56299;SDS011;42209;6.376;-10.782;2022-12-07T13:09:27;5.53;;;4.22;;
56299;SDS011;42209;6.376;-10.782;2022-12-07T13:12:01;5.95;;;4.07;;
56299;SDS011;42209;6.376;-10.782;2022-12-07T13:14:58;5.60;;;4.30;;
56299;SDS011;42209;6.376;-10.782;2022-12-07T13:20:01;6.43;;;5.32;;
56299;SDS011;42209;6.376;-10.782;2022-12-07T13:25:12;4.32;;;3.67;;
56299;SDS011;42209;6.376;-10.782;2022-12-07T13:33:27;5.10;;;4.50;;
56299;SDS011;42209;6.376;-10.782;2022-12-07T13:35:57;5.13;;;4.63;;
56299;SDS011;42209;6.376;-10.782;2022-12-07T13:49:22;5.30;;;4.40;;
56299;SDS011;42209;6.376;-10.782;2022-12-07T13:51:53;5.22;;;4.72;;
56299;SDS011;42209;6.376;-10.782;2022-12-07T13:54:42;4.65;;;4.03;;
56299;SDS011;42209;6.376;-10.782;2022-12-07T13:57:33;5.93;;;4.68;;
56299;SDS011;42209;6.376;-10.782;2022-12-07T14:00:05;5.50;;;4.40;;
56299;SDS011;42209;6.376;-10.782;2022-12-07T14:02:55;5.35;;;4.85;;
56299;SDS011;42209;6.376;-10.782;2022-12-07T14:05:26;5.18;;;4.40;;
56299;SDS011;42209;6.376;-10.782;2022-12-07T14:08:00;4.90;;;4.40;;
56299;SDS011;42209;6.376;-10.782;2022-12-07T14:16:02;4.93;;;4.00;;
56299;SDS011;42209;6.376;-10.782;2022-12-07T14:18:37;5.18;;;4.53;;
56299;SDS011;42209;6.376;-10.782;2022-12-07T14:26:50;5.47;;;4.97;;
56299;SDS011;42209;6.376;-10.782;2022-12-07T14:29:20;5.20;;;4.18;;
56299;SDS011;42209;6.376;-10.782;2022-12-07T14:31:50;4.78;;;3.97;;
56299;SDS011;42209;6.376;-10.782;2022-12-07T14:34:22;4.47;;;4.07;;
56299;SDS011;42209;6.376;-10.782;2022-12-07T14:36:55;5.00;;;4.13;;
56299;SDS011;42209;6.376;-10.782;2022-12-07T14:39:23;4.40;;;4.00;;
56299;SDS011;42209;6.376;-10.782;2022-12-07T14:41:52;4.60;;;4.15;;
56299;SDS011;42209;6.376;-10.782;2022-12-07T14:44:24;5.10;;;4.60;;
56299;SDS011;42209;6.376;-10.782;2022-12-07T14:47:01;4.75;;;4.22;;
56299;SDS011;42209;6.376;-10.782;2022-12-07T14:49:51;5.50;;;4.15;;
56299;SDS011;42209;6.376;-10.782;2022-12-07T14:52:24;4.85;;;4.43;;
56299;SDS011;42209;6.376;-10.782;2022-12-07T14:55:33;4.65;;;3.95;;
56299;SDS011;42209;6.376;-10.782;2022-12-07T14:58:02;5.10;;;4.32;;
56299;SDS011;42209;6.376;-10.782;2022-12-07T15:00:31;7.30;;;5.38;;
56299;SDS011;42209;6.376;-10.782;2022-12-07T15:05:29;4.88;;;4.38;;
56299;SDS011;42209;6.376;-10.782;2022-12-07T15:07:58;4.78;;;4.28;;
56299;SDS011;42209;6.376;-10.782;2022-12-07T15:10:28;5.30;;;4.15;;
56299;SDS011;42209;6.376;-10.782;2022-12-07T15:12:59;4.70;;;4.05;;
56299;SDS011;42209;6.376;-10.782;2022-12-07T15:15:29;4.85;;;4.18;;
56299;SDS011;42209;6.376;-10.782;2022-12-07T15:17:58;4.35;;;3.70;;
56299;SDS011;42209;6.376;-10.782;2022-12-07T15:20:26;6.57;;;5.45;;
56299;SDS011;42209;6.376;-10.782;2022-12-07T15:22:57;5.97;;;4.57;;
56299;SDS011;42209;6.376;-10.782;2022-12-07T15:25:26;5.18;;;4.63;;
56299;SDS011;42209;6.376;-10.782;2022-12-07T15:27:55;7.68;;;4.70;;
56299;SDS011;42209;6.376;-10.782;2022-12-07T15:30:26;5.32;;;4.25;;
56299;SDS011;42209;6.376;-10.782;2022-12-07T15:32:55;4.88;;;4.30;;
56299;SDS011;42209;6.376;-10.782;2022-12-07T15:35:28;5.43;;;4.93;;
56299;SDS011;42209;6.376;-10.782;2022-12-07T15:37:58;4.97;;;4.07;;
56299;SDS011;42209;6.376;-10.782;2022-12-07T15:40:26;5.90;;;5.07;;
56299;SDS011;42209;6.376;-10.782;2022-12-07T15:42:54;4.07;;;3.67;;
56299;SDS011;42209;6.376;-10.782;2022-12-07T15:45:24;5.35;;;4.45;;
56299;SDS011;42209;6.376;-10.782;2022-12-07T15:47:52;4.60;;;3.65;;
56299;SDS011;42209;6.376;-10.782;2022-12-07T15:50:40;5.43;;;4.10;;
56299;SDS011;42209;6.376;-10.782;2022-12-07T15:53:09;5.10;;;4.60;;
56299;SDS011;42209;6.376;-10.782;2022-12-07T15:55:38;5.20;;;4.70;;
56299;SDS011;42209;6.376;-10.782;2022-12-07T15:58:07;4.63;;;4.22;;
56299;SDS011;42209;6.376;-10.782;2022-12-07T16:00:36;6.28;;;4.85;;
56299;SDS011;42209;6.376;-10.782;2022-12-07T16:03:04;6.20;;;4.63;;
56299;SDS011;42209;6.376;-10.782;2022-12-07T16:05:33;7.32;;;4.93;;
56299;SDS011;42209;6.376;-10.782;2022-12-07T16:08:02;6.28;;;5.03;;
56299;SDS011;42209;6.376;-10.782;2022-12-07T16:10:35;5.28;;;4.70;;
56299;SDS011;42209;6.376;-10.782;2022-12-07T16:13:04;5.63;;;5.07;;
56299;SDS011;42209;6.376;-10.782;2022-12-07T16:15:32;5.53;;;4.80;;
56299;SDS011;42209;6.376;-10.782;2022-12-07T16:18:05;6.13;;;5.53;;
56299;SDS011;42209;6.376;-10.782;2022-12-07T16:20:39;6.63;;;4.70;;
56299;SDS011;42209;6.376;-10.782;2022-12-07T16:23:07;4.95;;;4.53;;
56299;SDS011;42209;6.376;-10.782;2022-12-07T16:25:37;5.00;;;4.57;;
56299;SDS011;42209;6.376;-10.782;2022-12-07T16:28:06;6.90;;;5.35;;
56299;SDS011;42209;6.376;-10.782;2022-12-07T16:30:36;6.40;;;5.07;;
56299;SDS011;42209;6.376;-10.782;2022-12-07T16:33:04;6.65;;;5.30;;
56299;SDS011;42209;6.376;-10.782;2022-12-07T16:35:33;6.15;;;4.72;;
56299;SDS011;42209;6.376;-10.782;2022-12-07T16:38:02;6.18;;;4.78;;
56299;SDS011;42209;6.376;-10.782;2022-12-07T16:40:30;7.00;;;4.63;;
56299;SDS011;42209;6.376;-10.782;2022-12-07T16:42:59;7.70;;;6.22;;
56299;SDS011;42209;6.376;-10.782;2022-12-07T16:45:28;4.78;;;4.32;;
56299;SDS011;42209;6.376;-10.782;2022-12-07T16:47:56;7.05;;;5.40;;
56299;SDS011;42209;6.376;-10.782;2022-12-07T16:50:25;5.22;;;4.50;;
56299;SDS011;42209;6.376;-10.782;2022-12-07T16:52:53;5.70;;;5.15;;
56299;SDS011;42209;6.376;-10.782;2022-12-07T16:55:22;6.07;;;5.47;;
56299;SDS011;42209;6.376;-10.782;2022-12-07T16:57:50;5.65;;;5.10;;
56299;SDS011;42209;6.376;-10.782;2022-12-07T17:00:19;7.55;;;5.38;;
56299;SDS011;42209;6.376;-10.782;2022-12-07T17:02:47;6.10;;;5.50;;
56299;SDS011;42209;6.376;-10.782;2022-12-07T17:05:16;5.90;;;4.85;;
56299;SDS011;42209;6.376;-10.782;2022-12-07T17:10:14;7.20;;;5.95;;
56299;SDS011;42209;6.376;-10.782;2022-12-07T17:12:42;5.68;;;4.30;;
56299;SDS011;42209;6.376;-10.782;2022-12-07T17:15:10;7.03;;;4.75;;
56299;SDS011;42209;6.376;-10.782;2022-12-07T17:17:38;8.05;;;4.93;;
56299;SDS011;42209;6.376;-10.782;2022-12-07T17:22:36;9.70;;;5.53;;
56299;SDS011;42209;6.376;-10.782;2022-12-07T17:27:33;6.25;;;5.38;;
56299;SDS011;42209;6.376;-10.782;2022-12-07T17:30:02;6.15;;;4.90;;
56299;SDS011;42209;6.376;-10.782;2022-12-07T17:32:32;6.25;;;4.50;;
56299;SDS011;42209;6.376;-10.782;2022-12-07T17:35:01;6.18;;;4.80;;
56299;SDS011;42209;6.376;-10.782;2022-12-07T17:37:30;6.95;;;5.90;;
56299;SDS011;42209;6.376;-10.782;2022-12-07T17:40:00;6.28;;;5.32;;
56299;SDS011;42209;6.376;-10.782;2022-12-07T17:42:29;5.55;;;5.05;;
56299;SDS011;42209;6.376;-10.782;2022-12-07T17:44:58;6.85;;;5.38;;
56299;SDS011;42209;6.376;-10.782;2022-12-07T17:47:31;7.35;;;5.15;;
56299;SDS011;42209;6.376;-10.782;2022-12-07T17:50:00;7.65;;;4.97;;
56299;SDS011;42209;6.376;-10.782;2022-12-07T17:52:33;8.32;;;5.75;;
56299;SDS011;42209;6.376;-10.782;2022-12-07T17:55:05;5.40;;;4.80;;
56299;SDS011;42209;6.376;-10.782;2022-12-07T17:57:34;7.15;;;5.30;;
56299;SDS011;42209;6.376;-10.782;2022-12-07T18:00:03;6.68;;;5.57;;